sensor_id;sensor_type;location;lat;lon;timestamp;P1;durP1;ratioP1;P2;durP2;ratioP2
14169;SDS011;63889;50.596;8.690;2023-04-01T00:02:23;5.50;;;1.10;;
14169;SDS011;63889;50.596;8.690;2023-04-01T00:04:49;5.43;;;0.93;;
14169;SDS011;63889;50.596;8.690;2023-04-01T00:07:15;9.40;;;1.13;;
14169;SDS011;63889;50.596;8.690;2023-04-01T00:09:40;7.03;;;0.80;;
14169;SDS011;63889;50.596;8.690;2023-04-01T00:12:06;6.63;;;0.93;;
14169;SDS011;63889;50.596;8.690;2023-04-01T00:14:31;2.88;;;0.52;;
14169;SDS011;63889;50.596;8.690;2023-04-01T00:16:57;3.58;;;0.65;;
14169;SDS011;63889;50.596;8.690;2023-04-01T00:19:26;5.88;;;0.85;;
14169;SDS011;63889;50.596;8.690;2023-04-01T00:21:52;2.28;;;0.70;;
14169;SDS011;63889;50.596;8.690;2023-04-01T00:24:18;7.00;;;2.00;;
14169;SDS011;63889;50.596;8.690;2023-04-01T00:26:44;4.53;;;0.80;;
14169;SDS011;63889;50.596;8.690;2023-04-01T00:29:10;5.47;;;0.90;;
14169;SDS011;63889;50.596;8.690;2023-04-01T00:31:35;6.93;;;1.10;;
14169;SDS011;63889;50.596;8.690;2023-04-01T00:34:01;5.75;;;1.00;;
14169;SDS011;63889;50.596;8.690;2023-04-01T00:36:27;4.22;;;0.82;;
14169;SDS011;63889;50.596;8.690;2023-04-01T00:38:52;7.72;;;0.90;;
14169;SDS011;63889;50.596;8.690;2023-04-01T00:41:18;5.18;;;0.73;;
14169;SDS011;63889;50.596;8.690;2023-04-01T00:43:46;3.92;;;0.95;;
14169;SDS011;63889;50.596;8.690;2023-04-01T00:46:13;4.45;;;1.05;;
14169;SDS011;63889;50.596;8.690;2023-04-01T00:48:41;9.43;;;1.73;;
14169;SDS011;63889;50.596;8.690;2023-04-01T00:51:11;3.85;;;0.80;;
14169;SDS011;63889;50.596;8.690;2023-04-01T00:53:43;5.43;;;0.70;;
14169;SDS011;63889;50.596;8.690;2023-04-01T00:56:13;5.00;;;0.93;;
14169;SDS011;63889;50.596;8.690;2023-04-01T00:58:42;3.42;;;0.73;;
14169;SDS011;63889;50.596;8.690;2023-04-01T01:01:13;4.32;;;0.85;;
14169;SDS011;63889;50.596;8.690;2023-04-01T01:03:39;4.35;;;0.77;;
14169;SDS011;63889;50.596;8.690;2023-04-01T01:11:29;6.20;;;0.82;;
14169;SDS011;63889;50.596;8.690;2023-04-01T01:14:09;7.90;;;0.85;;
14169;SDS011;63889;50.596;8.690;2023-04-01T01:17:02;4.00;;;0.52;;
14169;SDS011;63889;50.596;8.690;2023-04-01T01:25:11;5.53;;;0.68;;
14169;SDS011;63889;50.596;8.690;2023-04-01T01:27:51;4.72;;;0.70;;
14169;SDS011;63889;50.596;8.690;2023-04-01T01:36:06;6.30;;;1.00;;
14169;SDS011;63889;50.596;8.690;2023-04-01T01:38:37;2.22;;;0.73;;
14169;SDS011;63889;50.596;8.690;2023-04-01T01:41:04;2.20;;;0.70;;
14169;SDS011;63889;50.596;8.690;2023-04-01T01:43:33;7.75;;;1.60;;
14169;SDS011;63889;50.596;8.690;2023-04-01T01:46:08;5.95;;;0.50;;
14169;SDS011;63889;50.596;8.690;2023-04-01T01:48:36;6.85;;;0.80;;
14169;SDS011;63889;50.596;8.690;2023-04-01T01:51:06;1.60;;;0.40;;
14169;SDS011;63889;50.596;8.690;2023-04-01T01:53:32;1.75;;;0.60;;
14169;SDS011;63889;50.596;8.690;2023-04-01T01:55:57;2.35;;;0.65;;
14169;SDS011;63889;50.596;8.690;2023-04-01T01:58:36;2.10;;;0.52;;
14169;SDS011;63889;50.596;8.690;2023-04-01T02:01:07;2.88;;;0.43;;
14169;SDS011;63889;50.596;8.690;2023-04-01T02:03:36;3.90;;;0.40;;
14169;SDS011;63889;50.596;8.690;2023-04-01T02:06:04;2.92;;;0.57;;
14169;SDS011;63889;50.596;8.690;2023-04-01T02:08:36;2.53;;;0.40;;
14169;SDS011;63889;50.596;8.690;2023-04-01T02:11:07;2.47;;;0.50;;
14169;SDS011;63889;50.596;8.690;2023-04-01T02:13:47;4.60;;;0.50;;
14169;SDS011;63889;50.596;8.690;2023-04-01T02:16:14;1.95;;;0.40;;
14169;SDS011;63889;50.596;8.690;2023-04-01T02:18:46;6.85;;;1.02;;
14169;SDS011;63889;50.596;8.690;2023-04-01T02:21:15;5.03;;;0.45;;
14169;SDS011;63889;50.596;8.690;2023-04-01T02:23:43;0.90;;;0.20;;
14169;SDS011;63889;50.596;8.690;2023-04-01T02:26:11;2.33;;;0.40;;
14169;SDS011;63889;50.596;8.690;2023-04-01T02:28:38;1.67;;;0.40;;
14169;SDS011;63889;50.596;8.690;2023-04-01T02:31:06;0.55;;;0.20;;
14169;SDS011;63889;50.596;8.690;2023-04-01T02:33:34;3.33;;;0.35;;
14169;SDS011;63889;50.596;8.690;2023-04-01T02:36:00;5.78;;;0.82;;
14169;SDS011;63889;50.596;8.690;2023-04-01T02:38:25;5.47;;;0.40;;
14169;SDS011;63889;50.596;8.690;2023-04-01T02:40:56;2.47;;;0.35;;
14169;SDS011;63889;50.596;8.690;2023-04-01T02:43:23;2.53;;;0.65;;
14169;SDS011;63889;50.596;8.690;2023-04-01T02:45:49;0.95;;;0.35;;
14169;SDS011;63889;50.596;8.690;2023-04-01T02:48:15;2.30;;;0.35;;
14169;SDS011;63889;50.596;8.690;2023-04-01T02:50:40;1.60;;;0.40;;
14169;SDS011;63889;50.596;8.690;2023-04-01T02:53:06;3.08;;;0.50;;
14169;SDS011;63889;50.596;8.690;2023-04-01T02:55:32;4.75;;;0.60;;
14169;SDS011;63889;50.596;8.690;2023-04-01T02:57:58;2.33;;;0.40;;
14169;SDS011;63889;50.596;8.690;2023-04-01T03:00:24;4.05;;;0.45;;
14169;SDS011;63889;50.596;8.690;2023-04-01T03:02:50;3.58;;;0.40;;
14169;SDS011;63889;50.596;8.690;2023-04-01T03:05:16;2.50;;;0.30;;
14169;SDS011;63889;50.596;8.690;2023-04-01T03:07:41;3.60;;;0.88;;
14169;SDS011;63889;50.596;8.690;2023-04-01T03:10:07;2.13;;;0.40;;
14169;SDS011;63889;50.596;8.690;2023-04-01T03:12:33;3.28;;;0.40;;
14169;SDS011;63889;50.596;8.690;2023-04-01T03:14:58;4.65;;;0.63;;
14169;SDS011;63889;50.596;8.690;2023-04-01T03:17:24;6.68;;;0.65;;
14169;SDS011;63889;50.596;8.690;2023-04-01T03:19:49;0.28;;;0.28;;
14169;SDS011;63889;50.596;8.690;2023-04-01T03:22:15;1.60;;;0.55;;
14169;SDS011;63889;50.596;8.690;2023-04-01T03:24:41;1.10;;;0.35;;
14169;SDS011;63889;50.596;8.690;2023-04-01T03:27:06;1.65;;;0.40;;
14169;SDS011;63889;50.596;8.690;2023-04-01T03:29:32;6.15;;;0.40;;
14169;SDS011;63889;50.596;8.690;2023-04-01T03:31:57;1.83;;;0.52;;
14169;SDS011;63889;50.596;8.690;2023-04-01T03:34:24;0.57;;;0.40;;
14169;SDS011;63889;50.596;8.690;2023-04-01T03:36:50;3.28;;;0.40;;
14169;SDS011;63889;50.596;8.690;2023-04-01T03:39:16;4.35;;;0.50;;
14169;SDS011;63889;50.596;8.690;2023-04-01T03:41:43;3.85;;;0.80;;
14169;SDS011;63889;50.596;8.690;2023-04-01T03:44:10;4.15;;;0.38;;
14169;SDS011;63889;50.596;8.690;2023-04-01T03:46:36;4.47;;;0.85;;
14169;SDS011;63889;50.596;8.690;2023-04-01T03:49:02;6.85;;;0.82;;
14169;SDS011;63889;50.596;8.690;2023-04-01T03:51:27;3.60;;;0.55;;
14169;SDS011;63889;50.596;8.690;2023-04-01T03:53:53;1.15;;;0.45;;
14169;SDS011;63889;50.596;8.690;2023-04-01T03:56:19;3.42;;;0.50;;
14169;SDS011;63889;50.596;8.690;2023-04-01T03:58:44;2.13;;;0.60;;
14169;SDS011;63889;50.596;8.690;2023-04-01T04:01:20;2.33;;;0.47;;
14169;SDS011;63889;50.596;8.690;2023-04-01T04:03:47;2.58;;;0.65;;
14169;SDS011;63889;50.596;8.690;2023-04-01T04:06:13;2.47;;;0.40;;
14169;SDS011;63889;50.596;8.690;2023-04-01T04:08:39;1.92;;;0.40;;
14169;SDS011;63889;50.596;8.690;2023-04-01T04:11:05;3.53;;;0.28;;
14169;SDS011;63889;50.596;8.690;2023-04-01T04:13:31;5.03;;;0.70;;
14169;SDS011;63889;50.596;8.690;2023-04-01T04:15:57;6.05;;;0.57;;
14169;SDS011;63889;50.596;8.690;2023-04-01T04:18:23;2.22;;;0.40;;
14169;SDS011;63889;50.596;8.690;2023-04-01T04:20:49;1.05;;;0.40;;
14169;SDS011;63889;50.596;8.690;2023-04-01T04:23:16;2.70;;;0.60;;
14169;SDS011;63889;50.596;8.690;2023-04-01T04:25:41;2.97;;;0.68;;
14169;SDS011;63889;50.596;8.690;2023-04-01T04:28:18;2.38;;;0.40;;
14169;SDS011;63889;50.596;8.690;2023-04-01T04:30:44;5.03;;;0.60;;
14169;SDS011;63889;50.596;8.690;2023-04-01T04:33:10;0.57;;;0.20;;
14169;SDS011;63889;50.596;8.690;2023-04-01T04:35:35;2.83;;;0.50;;
14169;SDS011;63889;50.596;8.690;2023-04-01T04:38:01;2.42;;;0.40;;
14169;SDS011;63889;50.596;8.690;2023-04-01T04:40:26;2.03;;;0.40;;
14169;SDS011;63889;50.596;8.690;2023-04-01T04:42:51;1.98;;;0.38;;
14169;SDS011;63889;50.596;8.690;2023-04-01T04:45:17;3.30;;;0.40;;
14169;SDS011;63889;50.596;8.690;2023-04-01T04:47:43;1.10;;;0.43;;
14169;SDS011;63889;50.596;8.690;2023-04-01T04:50:08;3.65;;;0.52;;
14169;SDS011;63889;50.596;8.690;2023-04-01T04:52:34;1.55;;;0.60;;
14169;SDS011;63889;50.596;8.690;2023-04-01T04:55:00;3.80;;;0.70;;
14169;SDS011;63889;50.596;8.690;2023-04-01T04:57:25;2.00;;;0.40;;
14169;SDS011;63889;50.596;8.690;2023-04-01T04:59:51;3.78;;;0.60;;
14169;SDS011;63889;50.596;8.690;2023-04-01T05:02:16;2.63;;;1.08;;
14169;SDS011;63889;50.596;8.690;2023-04-01T05:04:42;0.80;;;0.28;;
14169;SDS011;63889;50.596;8.690;2023-04-01T05:07:07;2.22;;;0.40;;
14169;SDS011;63889;50.596;8.690;2023-04-01T05:09:33;2.38;;;0.43;;
14169;SDS011;63889;50.596;8.690;2023-04-01T05:11:58;3.00;;;0.80;;
14169;SDS011;63889;50.596;8.690;2023-04-01T05:14:24;3.25;;;0.73;;
14169;SDS011;63889;50.596;8.690;2023-04-01T05:16:50;4.30;;;0.63;;
14169;SDS011;63889;50.596;8.690;2023-04-01T05:19:15;0.50;;;0.50;;
14169;SDS011;63889;50.596;8.690;2023-04-01T05:21:41;4.22;;;0.52;;
14169;SDS011;63889;50.596;8.690;2023-04-01T05:24:07;1.63;;;0.60;;
14169;SDS011;63889;50.596;8.690;2023-04-01T05:26:34;2.80;;;0.52;;
14169;SDS011;63889;50.596;8.690;2023-04-01T05:29:01;2.20;;;0.45;;
14169;SDS011;63889;50.596;8.690;2023-04-01T05:31:27;3.40;;;0.40;;
14169;SDS011;63889;50.596;8.690;2023-04-01T05:33:53;1.73;;;0.95;;
14169;SDS011;63889;50.596;8.690;2023-04-01T05:36:19;1.23;;;0.15;;
14169;SDS011;63889;50.596;8.690;2023-04-01T05:38:45;2.15;;;0.50;;
14169;SDS011;63889;50.596;8.690;2023-04-01T05:41:12;1.73;;;0.38;;
14169;SDS011;63889;50.596;8.690;2023-04-01T05:43:38;7.78;;;0.65;;
14169;SDS011;63889;50.596;8.690;2023-04-01T05:46:05;2.83;;;0.35;;
14169;SDS011;63889;50.596;8.690;2023-04-01T05:48:31;1.38;;;0.40;;
14169;SDS011;63889;50.596;8.690;2023-04-01T05:50:59;3.33;;;0.52;;
14169;SDS011;63889;50.596;8.690;2023-04-01T05:53:25;1.25;;;0.30;;
14169;SDS011;63889;50.596;8.690;2023-04-01T05:55:51;3.83;;;0.30;;
14169;SDS011;63889;50.596;8.690;2023-04-01T05:58:16;2.30;;;0.28;;
14169;SDS011;63889;50.596;8.690;2023-04-01T06:00:42;2.13;;;0.52;;
14169;SDS011;63889;50.596;8.690;2023-04-01T06:03:11;3.38;;;0.50;;
14169;SDS011;63889;50.596;8.690;2023-04-01T06:05:41;4.18;;;0.70;;
14169;SDS011;63889;50.596;8.690;2023-04-01T06:08:15;5.68;;;1.20;;
14169;SDS011;63889;50.596;8.690;2023-04-01T06:10:52;3.42;;;1.67;;
14169;SDS011;63889;50.596;8.690;2023-04-01T06:13:31;1.92;;;0.30;;
14169;SDS011;63889;50.596;8.690;2023-04-01T06:16:19;2.08;;;0.35;;
14169;SDS011;63889;50.596;8.690;2023-04-01T06:19:07;2.65;;;0.30;;
14169;SDS011;63889;50.596;8.690;2023-04-01T06:32:53;0.95;;;0.40;;
14169;SDS011;63889;50.596;8.690;2023-04-01T06:38:02;1.20;;;0.32;;
14169;SDS011;63889;50.596;8.690;2023-04-01T06:51:45;1.33;;;0.47;;
14169;SDS011;63889;50.596;8.690;2023-04-01T06:54:34;1.63;;;0.20;;
14169;SDS011;63889;50.596;8.690;2023-04-01T06:57:29;1.85;;;0.20;;
14169;SDS011;63889;50.596;8.690;2023-04-01T07:00:14;1.38;;;0.35;;
14169;SDS011;63889;50.596;8.690;2023-04-01T07:02:50;1.35;;;0.20;;
14169;SDS011;63889;50.596;8.690;2023-04-01T07:05:38;0.68;;;0.20;;
14169;SDS011;63889;50.596;8.690;2023-04-01T07:10:43;0.93;;;0.20;;
14169;SDS011;63889;50.596;8.690;2023-04-01T07:13:26;0.10;;;0.05;;
14169;SDS011;63889;50.596;8.690;2023-04-01T07:16:15;2.05;;;0.40;;
14169;SDS011;63889;50.596;8.690;2023-04-01T07:21:20;0.20;;;0.20;;
14169;SDS011;63889;50.596;8.690;2023-04-01T07:23:54;2.72;;;0.30;;
14169;SDS011;63889;50.596;8.690;2023-04-01T07:26:25;1.10;;;0.25;;
14169;SDS011;63889;50.596;8.690;2023-04-01T07:28:52;4.75;;;0.40;;
14169;SDS011;63889;50.596;8.690;2023-04-01T07:31:25;2.30;;;0.20;;
14169;SDS011;63889;50.596;8.690;2023-04-01T07:34:38;1.77;;;0.22;;
14169;SDS011;63889;50.596;8.690;2023-04-01T07:36:48;1.50;;;0.30;;
14169;SDS011;63889;50.596;8.690;2023-04-01T07:47:54;1.75;;;0.30;;
14169;SDS011;63889;50.596;8.690;2023-04-01T07:55:55;0.55;;;0.20;;
14169;SDS011;63889;50.596;8.690;2023-04-01T08:01:17;0.28;;;0.20;;
14169;SDS011;63889;50.596;8.690;2023-04-01T08:04:01;2.00;;;0.20;;
14169;SDS011;63889;50.596;8.690;2023-04-01T08:06:36;2.80;;;0.30;;
14169;SDS011;63889;50.596;8.690;2023-04-01T08:09:48;0.17;;;0.15;;
14169;SDS011;63889;50.596;8.690;2023-04-01T08:12:28;2.70;;;0.35;;
14169;SDS011;63889;50.596;8.690;2023-04-01T08:15:12;1.55;;;0.35;;
14169;SDS011;63889;50.596;8.690;2023-04-01T08:23:06;1.25;;;0.20;;
14169;SDS011;63889;50.596;8.690;2023-04-01T08:25:35;0.60;;;0.20;;
14169;SDS011;63889;50.596;8.690;2023-04-01T08:30:55;0.47;;;0.17;;
14169;SDS011;63889;50.596;8.690;2023-04-01T08:33:27;0.40;;;0.17;;
14169;SDS011;63889;50.596;8.690;2023-04-01T08:35:57;1.67;;;0.15;;
14169;SDS011;63889;50.596;8.690;2023-04-01T08:41:24;0.60;;;0.20;;
14169;SDS011;63889;50.596;8.690;2023-04-01T08:44:04;0.47;;;0.13;;
14169;SDS011;63889;50.596;8.690;2023-04-01T08:49:30;0.60;;;0.10;;
14169;SDS011;63889;50.596;8.690;2023-04-01T08:57:21;0.52;;;0.32;;
14169;SDS011;63889;50.596;8.690;2023-04-01T09:16:23;1.52;;;0.38;;
14169;SDS011;63889;50.596;8.690;2023-04-01T09:19:13;1.30;;;0.60;;
14169;SDS011;63889;50.596;8.690;2023-04-01T09:27:02;3.45;;;0.88;;
14169;SDS011;63889;50.596;8.690;2023-04-01T09:38:20;0.20;;;0.10;;
14169;SDS011;63889;50.596;8.690;2023-04-01T09:44:06;3.70;;;1.60;;
14169;SDS011;63889;50.596;8.690;2023-04-01T09:46:54;0.10;;;0.10;;
14169;SDS011;63889;50.596;8.690;2023-04-01T09:49:48;1.95;;;1.20;;
14169;SDS011;63889;50.596;8.690;2023-04-01T09:58:37;0.15;;;0.10;;
14169;SDS011;63889;50.596;8.690;2023-04-01T10:01:42;2.05;;;1.00;;
14169;SDS011;63889;50.596;8.690;2023-04-01T10:09:53;6.78;;;3.28;;
14169;SDS011;63889;50.596;8.690;2023-04-01T10:12:48;0.88;;;0.40;;
14169;SDS011;63889;50.596;8.690;2023-04-01T10:20:59;1.25;;;1.10;;
14169;SDS011;63889;50.596;8.690;2023-04-01T10:46:28;4.60;;;1.38;;
14169;SDS011;63889;50.596;8.690;2023-04-01T11:05:28;0.30;;;0.22;;
14169;SDS011;63889;50.596;8.690;2023-04-01T11:19:17;0.88;;;0.57;;
14169;SDS011;63889;50.596;8.690;2023-04-01T11:27:40;1.05;;;0.45;;
14169;SDS011;63889;50.596;8.690;2023-04-01T11:30:29;2.22;;;0.70;;
14169;SDS011;63889;50.596;8.690;2023-04-01T11:36:07;2.67;;;1.58;;
14169;SDS011;63889;50.596;8.690;2023-04-01T11:38:41;4.45;;;1.85;;
14169;SDS011;63889;50.596;8.690;2023-04-01T11:41:34;0.90;;;0.80;;
14169;SDS011;63889;50.596;8.690;2023-04-01T11:46:52;3.27;;;1.37;;
14169;SDS011;63889;50.596;8.690;2023-04-01T11:55:15;3.67;;;0.60;;
14169;SDS011;63889;50.596;8.690;2023-04-01T11:57:56;2.63;;;1.25;;
14169;SDS011;63889;50.596;8.690;2023-04-01T12:03:36;0.80;;;0.60;;
14169;SDS011;63889;50.596;8.690;2023-04-01T12:09:01;1.10;;;0.70;;
14169;SDS011;63889;50.596;8.690;2023-04-01T12:22:55;1.48;;;1.00;;
14169;SDS011;63889;50.596;8.690;2023-04-01T12:25:38;1.38;;;0.60;;
14169;SDS011;63889;50.596;8.690;2023-04-01T12:45:30;0.60;;;0.43;;
14169;SDS011;63889;50.596;8.690;2023-04-01T12:53:51;0.88;;;0.63;;
14169;SDS011;63889;50.596;8.690;2023-04-01T12:58:58;3.25;;;1.77;;
14169;SDS011;63889;50.596;8.690;2023-04-01T13:04:37;2.65;;;1.20;;
14169;SDS011;63889;50.596;8.690;2023-04-01T13:15:47;2.97;;;1.38;;
14169;SDS011;63889;50.596;8.690;2023-04-01T13:18:40;2.08;;;1.30;;
14169;SDS011;63889;50.596;8.690;2023-04-01T13:21:31;3.72;;;2.00;;
14169;SDS011;63889;50.596;8.690;2023-04-01T13:24:23;2.83;;;1.60;;
14169;SDS011;63889;50.596;8.690;2023-04-01T13:26:53;2.30;;;1.13;;
14169;SDS011;63889;50.596;8.690;2023-04-01T13:29:36;4.50;;;1.80;;
14169;SDS011;63889;50.596;8.690;2023-04-01T13:41:09;2.15;;;1.40;;
14169;SDS011;63889;50.596;8.690;2023-04-01T13:43:39;3.53;;;2.13;;
14169;SDS011;63889;50.596;8.690;2023-04-01T13:46:52;3.88;;;1.05;;
14169;SDS011;63889;50.596;8.690;2023-04-01T13:49:05;1.60;;;0.90;;
14169;SDS011;63889;50.596;8.690;2023-04-01T13:59:59;5.07;;;1.83;;
14169;SDS011;63889;50.596;8.690;2023-04-01T14:16:56;0.47;;;0.45;;
14169;SDS011;63889;50.596;8.690;2023-04-01T14:19:50;0.52;;;0.50;;
14169;SDS011;63889;50.596;8.690;2023-04-01T14:22:39;2.47;;;0.70;;
14169;SDS011;63889;50.596;8.690;2023-04-01T14:47:42;0.80;;;0.50;;
14169;SDS011;63889;50.596;8.690;2023-04-01T14:50:13;0.47;;;0.40;;
14169;SDS011;63889;50.596;8.690;2023-04-01T14:52:57;0.70;;;0.68;;
14169;SDS011;63889;50.596;8.690;2023-04-01T14:55:45;0.60;;;0.60;;
14169;SDS011;63889;50.596;8.690;2023-04-01T14:58:17;1.92;;;0.70;;
14169;SDS011;63889;50.596;8.690;2023-04-01T15:00:58;0.47;;;0.40;;
14169;SDS011;63889;50.596;8.690;2023-04-01T15:16:54;0.93;;;0.50;;
14169;SDS011;63889;50.596;8.690;2023-04-01T15:22:36;3.30;;;1.30;;
14169;SDS011;63889;50.596;8.690;2023-04-01T15:30:28;0.38;;;0.20;;
14169;SDS011;63889;50.596;8.690;2023-04-01T15:38:20;0.20;;;0.20;;
14169;SDS011;63889;50.596;8.690;2023-04-01T15:40:49;0.57;;;0.40;;
14169;SDS011;63889;50.596;8.690;2023-04-01T15:46:18;0.93;;;0.40;;
14169;SDS011;63889;50.596;8.690;2023-04-01T15:59:38;1.65;;;0.50;;
14169;SDS011;63889;50.596;8.690;2023-04-01T16:05:37;2.90;;;0.38;;
14169;SDS011;63889;50.596;8.690;2023-04-01T16:13:48;1.10;;;0.32;;
14169;SDS011;63889;50.596;8.690;2023-04-01T16:22:39;0.77;;;0.50;;
14169;SDS011;63889;50.596;8.690;2023-04-01T16:28:05;0.90;;;0.40;;
14169;SDS011;63889;50.596;8.690;2023-04-01T16:30:44;5.35;;;0.57;;
14169;SDS011;63889;50.596;8.690;2023-04-01T16:36:07;1.65;;;0.75;;
14169;SDS011;63889;50.596;8.690;2023-04-01T16:38:43;0.70;;;0.57;;
14169;SDS011;63889;50.596;8.690;2023-04-01T16:41:19;0.55;;;0.55;;
14169;SDS011;63889;50.596;8.690;2023-04-01T16:43:52;1.00;;;0.50;;
14169;SDS011;63889;50.596;8.690;2023-04-01T16:46:38;0.60;;;0.50;;
14169;SDS011;63889;50.596;8.690;2023-04-01T17:02:10;2.45;;;1.10;;
14169;SDS011;63889;50.596;8.690;2023-04-01T17:04:41;2.63;;;1.25;;
14169;SDS011;63889;50.596;8.690;2023-04-01T17:07:20;1.33;;;0.70;;
14169;SDS011;63889;50.596;8.690;2023-04-01T17:09:57;1.30;;;0.60;;
14169;SDS011;63889;50.596;8.690;2023-04-01T17:12:36;2.28;;;1.15;;
14169;SDS011;63889;50.596;8.690;2023-04-01T17:17:47;2.85;;;1.38;;
14169;SDS011;63889;50.596;8.690;2023-04-01T17:23:12;1.88;;;1.13;;
14169;SDS011;63889;50.596;8.690;2023-04-01T17:25:55;2.85;;;1.42;;
14169;SDS011;63889;50.596;8.690;2023-04-01T17:28:32;3.55;;;1.48;;
14169;SDS011;63889;50.596;8.690;2023-04-01T17:39:26;11.10;;;3.25;;
14169;SDS011;63889;50.596;8.690;2023-04-01T17:42:13;6.22;;;2.17;;
14169;SDS011;63889;50.596;8.690;2023-04-01T17:50:10;1.67;;;1.13;;
14169;SDS011;63889;50.596;8.690;2023-04-01T17:52:44;2.47;;;1.05;;
14169;SDS011;63889;50.596;8.690;2023-04-01T18:04:07;4.05;;;2.10;;
14169;SDS011;63889;50.596;8.690;2023-04-01T18:11:59;2.03;;;1.42;;
14169;SDS011;63889;50.596;8.690;2023-04-01T18:20:30;5.95;;;2.47;;
14169;SDS011;63889;50.596;8.690;2023-04-01T18:23:04;5.05;;;2.13;;
14169;SDS011;63889;50.596;8.690;2023-04-01T18:25:47;6.20;;;2.40;;
14169;SDS011;63889;50.596;8.690;2023-04-01T18:33:50;9.10;;;3.07;;
14169;SDS011;63889;50.596;8.690;2023-04-01T18:44:38;4.93;;;2.00;;
14169;SDS011;63889;50.596;8.690;2023-04-01T18:47:27;6.82;;;2.63;;
14169;SDS011;63889;50.596;8.690;2023-04-01T18:56:03;6.10;;;2.42;;
14169;SDS011;63889;50.596;8.690;2023-04-01T19:01:03;1.30;;;0.80;;
14169;SDS011;63889;50.596;8.690;2023-04-01T19:06:22;2.53;;;1.30;;
14169;SDS011;63889;50.596;8.690;2023-04-01T19:08:52;3.60;;;1.60;;
14169;SDS011;63889;50.596;8.690;2023-04-01T19:13:50;7.53;;;2.70;;
14169;SDS011;63889;50.596;8.690;2023-04-01T19:22:13;1.58;;;1.10;;
14169;SDS011;63889;50.596;8.690;2023-04-01T19:27:49;2.70;;;1.15;;
14169;SDS011;63889;50.596;8.690;2023-04-01T19:30:21;5.97;;;1.77;;
14169;SDS011;63889;50.596;8.690;2023-04-01T19:36:09;2.35;;;1.33;;
14169;SDS011;63889;50.596;8.690;2023-04-01T19:38:37;4.75;;;1.10;;
14169;SDS011;63889;50.596;8.690;2023-04-01T19:41:09;1.92;;;0.93;;
14169;SDS011;63889;50.596;8.690;2023-04-01T19:46:41;2.17;;;0.93;;
14169;SDS011;63889;50.596;8.690;2023-04-01T19:49:18;2.10;;;1.45;;
14169;SDS011;63889;50.596;8.690;2023-04-01T19:59:31;2.65;;;1.35;;
14169;SDS011;63889;50.596;8.690;2023-04-01T20:04:53;3.85;;;1.90;;
14169;SDS011;63889;50.596;8.690;2023-04-01T20:07:31;2.50;;;1.63;;
14169;SDS011;63889;50.596;8.690;2023-04-01T20:10:22;3.42;;;1.20;;
14169;SDS011;63889;50.596;8.690;2023-04-01T20:18:08;1.42;;;0.93;;
14169;SDS011;63889;50.596;8.690;2023-04-01T20:20:59;1.33;;;1.00;;
14169;SDS011;63889;50.596;8.690;2023-04-01T20:23:39;1.87;;;1.33;;
14169;SDS011;63889;50.596;8.690;2023-04-01T20:26:10;2.10;;;0.90;;
14169;SDS011;63889;50.596;8.690;2023-04-01T20:28:47;2.55;;;0.82;;
14169;SDS011;63889;50.596;8.690;2023-04-01T20:31:40;1.35;;;0.73;;
14169;SDS011;63889;50.596;8.690;2023-04-01T20:34:21;1.58;;;0.82;;
14169;SDS011;63889;50.596;8.690;2023-04-01T20:51:24;1.45;;;0.90;;
14169;SDS011;63889;50.596;8.690;2023-04-01T20:59:39;3.60;;;1.30;;
14169;SDS011;63889;50.596;8.690;2023-04-01T21:02:20;3.55;;;1.58;;
14169;SDS011;63889;50.596;8.690;2023-04-01T21:05:07;1.60;;;1.30;;
14169;SDS011;63889;50.596;8.690;2023-04-01T21:07:37;3.45;;;1.35;;
14169;SDS011;63889;50.596;8.690;2023-04-01T21:11:10;2.53;;;1.17;;
14169;SDS011;63889;50.596;8.690;2023-04-01T21:19:46;1.77;;;1.20;;
14169;SDS011;63889;50.596;8.690;2023-04-01T21:30:55;1.08;;;0.70;;
14169;SDS011;63889;50.596;8.690;2023-04-01T21:36:38;0.70;;;0.70;;
14169;SDS011;63889;50.596;8.690;2023-04-01T21:39:28;1.17;;;0.70;;
14169;SDS011;63889;50.596;8.690;2023-04-01T21:42:11;1.25;;;0.80;;
14169;SDS011;63889;50.596;8.690;2023-04-01T22:10:37;1.35;;;1.10;;
14169;SDS011;63889;50.596;8.690;2023-04-01T22:13:16;2.63;;;1.17;;
14169;SDS011;63889;50.596;8.690;2023-04-01T22:15:51;1.67;;;1.10;;
14169;SDS011;63889;50.596;8.690;2023-04-01T22:18:49;2.78;;;1.70;;
14169;SDS011;63889;50.596;8.690;2023-04-01T22:27:03;2.08;;;1.33;;
14169;SDS011;63889;50.596;8.690;2023-04-01T22:30:24;0.85;;;0.73;;
14169;SDS011;63889;50.596;8.690;2023-04-01T22:43:36;3.10;;;1.00;;
14169;SDS011;63889;50.596;8.690;2023-04-01T22:46:16;1.25;;;1.10;;
14169;SDS011;63889;50.596;8.690;2023-04-01T22:51:54;2.30;;;1.20;;
14169;SDS011;63889;50.596;8.690;2023-04-01T22:59:45;1.27;;;0.93;;
14169;SDS011;63889;50.596;8.690;2023-04-01T23:02:28;1.13;;;1.00;;
14169;SDS011;63889;50.596;8.690;2023-04-01T23:04:59;5.03;;;1.23;;
14169;SDS011;63889;50.596;8.690;2023-04-01T23:07:33;7.18;;;1.92;;
14169;SDS011;63889;50.596;8.690;2023-04-01T23:10:21;5.70;;;1.30;;
14169;SDS011;63889;50.596;8.690;2023-04-01T23:13:04;2.33;;;1.10;;
14169;SDS011;63889;50.596;8.690;2023-04-01T23:15:35;2.63;;;1.15;;
14169;SDS011;63889;50.596;8.690;2023-04-01T23:20:54;4.68;;;1.65;;
14169;SDS011;63889;50.596;8.690;2023-04-01T23:23:50;2.60;;;1.20;;
14169;SDS011;63889;50.596;8.690;2023-04-01T23:26:39;3.75;;;1.10;;
14169;SDS011;63889;50.596;8.690;2023-04-01T23:29:16;1.83;;;1.25;;
14169;SDS011;63889;50.596;8.690;2023-04-01T23:31:44;10.27;;;2.88;;
14169;SDS011;63889;50.596;8.690;2023-04-01T23:36:58;10.75;;;3.63;;
14169;SDS011;63889;50.596;8.690;2023-04-01T23:39:39;7.00;;;2.80;;
14169;SDS011;63889;50.596;8.690;2023-04-01T23:42:15;5.22;;;2.50;;
14169;SDS011;63889;50.596;8.690;2023-04-01T23:44:55;22.77;;;6.95;;
14169;SDS011;63889;50.596;8.690;2023-04-01T23:47:24;10.75;;;3.33;;
14169;SDS011;63889;50.596;8.690;2023-04-01T23:50:03;6.80;;;2.83;;
14169;SDS011;63889;50.596;8.690;2023-04-01T23:52:36;11.02;;;4.55;;
14169;SDS011;63889;50.596;8.690;2023-04-01T23:55:22;6.78;;;3.17;;
